地図

経路データ

SID SEASON NUMBER BASIN SUBBASIN NAME ISO_TIME NATURE LAT LON WMO_WIND WMO_PRES WMO_AGENCY TRACK_TYPE DIST2LAND LANDFALL IFLAG USA_AGENCY USA_ATCF_ID USA_LAT USA_LON USA_RECORD USA_STATUS USA_WIND USA_PRES USA_SSHS USA_R34_NE USA_R34_SE USA_R34_SW USA_R34_NW USA_R50_NE USA_R50_SE USA_R50_SW USA_R50_NW USA_R64_NE USA_R64_SE USA_R64_SW USA_R64_NW USA_POCI USA_ROCI USA_RMW USA_EYE TOKYO_LAT TOKYO_LON TOKYO_GRADE TOKYO_WIND TOKYO_PRES TOKYO_R50_DIR TOKYO_R50_LONG TOKYO_R50_SHORT TOKYO_R30_DIR TOKYO_R30_LONG TOKYO_R30_SHORT TOKYO_LAND CMA_LAT CMA_LON CMA_CAT CMA_WIND CMA_PRES HKO_LAT HKO_LON HKO_CAT HKO_WIND HKO_PRES NEWDELHI_LAT NEWDELHI_LON NEWDELHI_GRADE NEWDELHI_WIND NEWDELHI_PRES NEWDELHI_CI NEWDELHI_DP NEWDELHI_POCI REUNION_LAT REUNION_LON REUNION_TYPE REUNION_WIND REUNION_PRES REUNION_TNUM REUNION_CI REUNION_RMW REUNION_R34_NE REUNION_R34_SE REUNION_R34_SW REUNION_R34_NW REUNION_R50_NE REUNION_R50_SE REUNION_R50_SW REUNION_R50_NW REUNION_R64_NE REUNION_R64_SE REUNION_R64_SW REUNION_R64_NW BOM_LAT BOM_LON BOM_TYPE BOM_WIND BOM_PRES BOM_TNUM BOM_CI BOM_RMW BOM_R34_NE BOM_R34_SE BOM_R34_SW BOM_R34_NW BOM_R50_NE BOM_R50_SE BOM_R50_SW BOM_R50_NW BOM_R64_NE BOM_R64_SE BOM_R64_SW BOM_R64_NW BOM_ROCI BOM_POCI BOM_EYE BOM_POS_METHOD BOM_PRES_METHOD NADI_LAT NADI_LON NADI_CAT NADI_WIND NADI_PRES WELLINGTON_LAT WELLINGTON_LON WELLINGTON_WIND WELLINGTON_PRES DS824_LAT DS824_LON DS824_STAGE DS824_WIND DS824_PRES TD9636_LAT TD9636_LON TD9636_STAGE TD9636_WIND TD9636_PRES TD9635_LAT TD9635_LON TD9635_WIND TD9635_PRES TD9635_ROCI NEUMANN_LAT NEUMANN_LON NEUMANN_CLASS NEUMANN_WIND NEUMANN_PRES MLC_LAT MLC_LON MLC_CLASS MLC_WIND MLC_PRES USA_GUST BOM_GUST BOM_GUST_PER REUNION_GUST REUNION_GUST_PER USA_SEAHGT USA_SEARAD_NE USA_SEARAD_SE USA_SEARAD_SW USA_SEARAD_NW STORM_SPEED STORM_DIR
2001265N25296 2001 69 NA NA HUMBERTO 2001-09-21 12:00:00 TS 25.1000 -64.2000 25 1012 hurdat_atl main 762 762 O_____________ hurdat_atl AL102001 25.1000 -64.2000 TD 25 1012 -1 10 312
2001265N25296 2001 69 NA NA HUMBERTO 2001-09-21 15:00:00 TS 25.4503 -64.6269 main 800 799 P_____________ AL102001 25.4503 -64.6269 TD 25 1012 -1 10 314
2001265N25296 2001 69 NA NA HUMBERTO 2001-09-21 18:00:00 TS 25.8000 -65.0000 25 1012 hurdat_atl main 829 829 O_____________ hurdat_atl AL102001 25.8000 -65.0000 TD 25 1012 -1 9 320
2001265N25296 2001 69 NA NA HUMBERTO 2001-09-21 21:00:00 TS 26.1498 -65.2803 main 861 861 P_____________ AL102001 26.1498 -65.2803 TD 25 1011 -1 8 327
2001265N25296 2001 69 NA NA HUMBERTO 2001-09-22 00:00:00 TS 26.5000 -65.5000 25 1010 hurdat_atl main 893 893 O_____________ hurdat_atl AL102001 26.5000 -65.5000 TD 25 1010 -1 8 331
2001265N25296 2001 69 NA NA HUMBERTO 2001-09-22 03:00:00 TS 26.8499 -65.7077 main 915 915 P_____________ AL102001 26.8499 -65.7077 TD 27 1010 -1 8 333
2001265N25296 2001 69 NA NA HUMBERTO 2001-09-22 06:00:00 TS 27.2000 -65.9000 30 1010 hurdat_atl main 946 946 O_____________ hurdat_atl AL102001 27.2000 -65.9000 TD 30 1010 -1 8 333
2001265N25296 2001 69 NA NA HUMBERTO 2001-09-22 09:00:00 TS 27.5500 -66.1001 main 968 968 P_____________ AL102001 27.5500 -66.1001 TD 35 1008 0 8 333
2001265N25296 2001 69 NA NA HUMBERTO 2001-09-22 12:00:00 TS 27.9000 -66.3000 40 1007 hurdat_atl main 1000 1000 O_____________ hurdat_atl AL102001 27.9000 -66.3000 TS 40 1007 0 8 333
2001265N25296 2001 69 NA NA HUMBERTO 2001-09-22 15:00:00 TS 28.2500 -66.5076 main 1028 1020 P_____________ AL102001 28.2500 -66.5076 TS 45 1002 0 8 333
2001265N25296 2001 69 NA NA HUMBERTO 2001-09-22 18:00:00 TS 28.6000 -66.7000 50 998 hurdat_atl main 1042 1042 O_____________ hurdat_atl AL102001 28.6000 -66.7000 TS 50 998 0 75 75 50 75 1014 125 50 8 336
2001265N25296 2001 69 NA NA HUMBERTO 2001-09-22 21:00:00 TS 28.9425 -66.8577 main 1056 1056 P_____________ AL102001 28.9425 -66.8577 TS 52 996 0 8 339
2001265N25296 2001 69 NA NA HUMBERTO 2001-09-23 00:00:00 TS 29.3000 -67.0000 55 995 hurdat_atl main 1073 1037 O_____________ hurdat_atl AL102001 29.3000 -67.0000 TS 55 995 0 8 341
2001265N25296 2001 69 NA NA HUMBERTO 2001-09-23 03:00:00 TS 29.6850 -67.1575 main 1030 992 P_____________ AL102001 29.6850 -67.1575 TS 55 994 0 8 342
2001265N25296 2001 69 NA NA HUMBERTO 2001-09-23 06:00:00 TS 30.1000 -67.3000 55 994 hurdat_atl main 992 956 O_____________ hurdat_atl AL102001 30.1000 -67.3000 TS 55 994 0 40 25 25 60 1014 125 15 9 345
2001265N25296 2001 69 NA NA HUMBERTO 2001-09-23 09:00:00 TS 30.5425 -67.4298 main 956 913 P_____________ AL102001 30.5425 -67.4298 TS 60 992 0 9 349
2001265N25296 2001 69 NA NA HUMBERTO 2001-09-23 12:00:00 TS 31.0000 -67.5000 65 990 hurdat_atl main 913 886 O_____________ hurdat_atl AL102001 31.0000 -67.5000 HU 65 990 1 9 357
2001265N25296 2001 69 NA NA HUMBERTO 2001-09-23 15:00:00 TS 31.4500 -67.4875 main 886 863 P_____________ AL102001 31.4500 -67.4875 HU 72 988 1 9 5
2001265N25296 2001 69 NA NA HUMBERTO 2001-09-23 18:00:00 TS 31.9000 -67.4000 80 986 hurdat_atl main 863 848 O_____________ hurdat_atl AL102001 31.9000 -67.4000 HU 80 986 1 9 12
2001265N25296 2001 69 NA NA HUMBERTO 2001-09-23 21:00:00 TS 32.3425 -67.2650 main 848 839 P_____________ AL102001 32.3425 -67.2650 HU 82 984 1 9 16
2001265N25296 2001 69 NA NA HUMBERTO 2001-09-24 00:00:00 TS 32.8000 -67.1000 85 983 hurdat_atl main 839 829 O_____________ hurdat_atl AL102001 32.8000 -67.1000 HU 85 983 2 90 90 30 30 1016 125 15 10 15
2001265N25296 2001 69 NA NA HUMBERTO 2001-09-24 03:00:00 TS 33.2774 -66.9645 main 824 821 P_____________ AL102001 33.2774 -66.9645 HU 80 986 1 10 14
2001265N25296 2001 69 NA NA HUMBERTO 2001-09-24 06:00:00 TS 33.8000 -66.8000 75 989 hurdat_atl main 823 816 O_____________ hurdat_atl AL102001 33.8000 -66.8000 HU 75 989 1 12 15
2001265N25296 2001 69 NA NA HUMBERTO 2001-09-24 09:00:00 TS 34.4073 -66.5947 main 822 812 P_____________ AL102001 34.4073 -66.5947 HU 72 989 1 13 19
2001265N25296 2001 69 NA NA HUMBERTO 2001-09-24 12:00:00 TS 35.0000 -66.3000 70 990 hurdat_atl main 812 782 O_____________ hurdat_atl AL102001 35.0000 -66.3000 HU 70 990 1 12 28
2001265N25296 2001 69 NA NA HUMBERTO 2001-09-24 15:00:00 TS 35.4724 -65.8945 main 776 753 P_____________ AL102001 35.4724 -65.8945 HU 70 990 1 12 39
2001265N25296 2001 69 NA NA HUMBERTO 2001-09-24 18:00:00 TS 35.9000 -65.4000 70 991 hurdat_atl main 757 743 O_____________ hurdat_atl AL102001 35.9000 -65.4000 HU 70 991 1 12 44
2001265N25296 2001 69 NA NA HUMBERTO 2001-09-24 21:00:00 TS 36.3501 -64.8499 main 740 732 P_____________ AL102001 36.3501 -64.8499 HU 67 991 1 13 45
2001265N25296 2001 69 NA NA HUMBERTO 2001-09-25 00:00:00 TS 36.8000 -64.3000 65 992 hurdat_atl main 732 710 O_____________ hurdat_atl AL102001 36.8000 -64.3000 HU 65 992 1 75 100 100 75 1015 150 15 12 42
2001265N25296 2001 69 NA NA HUMBERTO 2001-09-25 03:00:00 TS 37.2570 -63.8417 main 701 662 P_____________ AL102001 37.2570 -63.8417 HU 65 992 1 12 39
2001265N25296 2001 69 NA NA HUMBERTO 2001-09-25 06:00:00 TS 37.7000 -63.4000 65 992 hurdat_atl main 664 633 O_____________ hurdat_atl AL102001 37.7000 -63.4000 HU 65 992 1 11 41
2001265N25296 2001 69 NA NA HUMBERTO 2001-09-25 09:00:00 TS 38.1150 -62.8923 main 633 603 P_____________ AL102001 38.1150 -62.8923 HU 65 992 1 11 45
2001265N25296 2001 69 NA NA HUMBERTO 2001-09-25 12:00:00 TS 38.5000 -62.4000 65 992 hurdat_atl main 606 580 O_____________ hurdat_atl AL102001 38.5000 -62.4000 HU 65 992 1 10 43
2001265N25296 2001 69 NA NA HUMBERTO 2001-09-25 15:00:00 TS 38.8796 -61.9921 main 580 564 P_____________ AL102001 38.8796 -61.9921 HU 65 991 1 9 42
2001265N25296 2001 69 NA NA HUMBERTO 2001-09-25 18:00:00 TS 39.2000 -61.6000 65 990 hurdat_atl main 568 563 O_____________ hurdat_atl AL102001 39.2000 -61.6000 HU 65 990 1 60 120 60 60 1015 150 15 8 53
2001265N25296 2001 69 NA NA HUMBERTO 2001-09-25 21:00:00 TS 39.3927 -61.1194 main 574 570 P_____________ AL102001 39.3927 -61.1194 HU 65 990 1 60 120 60 60 1015 150 17 8 60
2001265N25296 2001 69 NA NA HUMBERTO 2001-09-26 00:00:00 TS 39.6000 -60.7000 65 990 hurdat_atl main 577 551 O_____________ hurdat_atl AL102001 39.6000 -60.7000 HU 65 990 1 60 120 60 60 1015 150 20 8 38
2001265N25296 2001 69 NA NA HUMBERTO 2001-09-26 03:00:00 TS 39.9843 -60.5139 main 551 519 P_____________ AL102001 39.9843 -60.5139 HU 70 985 1 9 21
2001265N25296 2001 69 NA NA HUMBERTO 2001-09-26 06:00:00 TS 40.4000 -60.3000 75 980 hurdat_atl main 519 502 O_____________ hurdat_atl AL102001 40.4000 -60.3000 HU 75 980 1 9 35
2001265N25296 2001 69 NA NA HUMBERTO 2001-09-26 09:00:00 TS 40.6996 -59.8463 main 506 489 P_____________ AL102001 40.6996 -59.8463 HU 82 975 1 10 54
2001265N25296 2001 69 NA NA HUMBERTO 2001-09-26 12:00:00 TS 41.0000 -59.2000 90 970 hurdat_atl main 491 468 O_____________ hurdat_atl AL102001 41.0000 -59.2000 HU 90 970 2 12 55
2001265N25296 2001 69 NA NA HUMBERTO 2001-09-26 15:00:00 TS 41.4128 -58.4851 main 471 463 P_____________ AL102001 41.4128 -58.4851 HU 85 973 2 15 58
2001265N25296 2001 69 NA NA HUMBERTO 2001-09-26 18:00:00 TS 41.8000 -57.5000 80 977 hurdat_atl main 475 475 O_____________ hurdat_atl AL102001 41.8000 -57.5000 HU 80 977 1 60 120 100 60 1015 150 25 18 70
2001265N25296 2001 69 NA NA HUMBERTO 2001-09-26 21:00:00 TS 42.0448 -56.1691 main 522 496 P_____________ AL102001 42.0448 -56.1691 HU 75 982 1 60 120 100 60 1015 150 25 22 79
2001265N25296 2001 69 NA NA HUMBERTO 2001-09-27 00:00:00 TS 42.2000 -54.6000 70 987 hurdat_atl main 495 477 O_____________ hurdat_atl AL102001 42.2000 -54.6000 HU 70 987 1 60 120 100 60 1015 150 25 23 83
2001265N25296 2001 69 NA NA HUMBERTO 2001-09-27 03:00:00 TS 42.3421 -53.0182 main 478 467 P_____________ AL102001 42.3421 -53.0182 HU 67 989 1 24 85
2001265N25296 2001 69 NA NA HUMBERTO 2001-09-27 06:00:00 TS 42.4000 -51.3000 65 991 hurdat_atl main 490 490 O_____________ hurdat_atl AL102001 42.4000 -51.3000 HU 65 991 1 27 89
2001265N25296 2001 69 NA NA HUMBERTO 2001-09-27 09:00:00 TS 42.3688 -49.3781 main 554 554 P_____________ AL102001 42.3688 -49.3781 HU 62 992 0 28 94
2001265N25296 2001 69 NA NA HUMBERTO 2001-09-27 12:00:00 TS 42.2000 -47.5000 60 994 hurdat_atl main 664 664 O_____________ hurdat_atl AL102001 42.2000 -47.5000 TS 60 994 0 26 101
2001265N25296 2001 69 NA NA HUMBERTO 2001-09-27 15:00:00 TS 41.8908 -45.9042 main 779 779 P_____________ AL102001 41.8908 -45.9042 TS 52 995 0 23 107
2001265N25296 2001 69 NA NA HUMBERTO 2001-09-27 18:00:00 TS 41.5000 -44.5000 45 996 hurdat_atl main 894 O_____________ hurdat_atl AL102001 41.5000 -44.5000 TS 45 996 0 50 100 100 50 1012 180 25 22 110

IBTrACS Databaseについて

本データベースは、米国NOAAが公開する1842年以降の世界の熱帯低気圧のベストトラックデータアーカイブInternational Best Track Archive for Climate Stewardship (IBTrACS)を、ウェブで閲覧しやすい形式に変換したものです。

最終更新日:2021-11-26